sensor_id;sensor_type;location;lat;lon;timestamp;P1;durP1;ratioP1;P2;durP2;ratioP2
6121;SDS011;3091;51.506;7.672;2023-04-24T00:00:05;12.70;;;12.30;;
6121;SDS011;3091;51.506;7.672;2023-04-24T00:02:34;13.10;;;12.70;;
6121;SDS011;3091;51.506;7.672;2023-04-24T00:05:05;13.00;;;12.60;;
6121;SDS011;3091;51.506;7.672;2023-04-24T00:07:31;13.40;;;13.00;;
6121;SDS011;3091;51.506;7.672;2023-04-24T00:09:57;13.57;;;13.17;;
6121;SDS011;3091;51.506;7.672;2023-04-24T00:12:24;13.70;;;13.30;;
6121;SDS011;3091;51.506;7.672;2023-04-24T00:14:50;14.20;;;13.70;;
6121;SDS011;3091;51.506;7.672;2023-04-24T00:17:16;14.23;;;13.73;;
6121;SDS011;3091;51.506;7.672;2023-04-24T00:19:45;14.53;;;14.03;;
6121;SDS011;3091;51.506;7.672;2023-04-24T00:22:11;13.13;;;12.70;;
6121;SDS011;3091;51.506;7.672;2023-04-24T00:24:38;11.50;;;11.20;;
6121;SDS011;3091;51.506;7.672;2023-04-24T00:27:04;11.50;;;11.20;;
6121;SDS011;3091;51.506;7.672;2023-04-24T00:29:30;10.83;;;10.53;;
6121;SDS011;3091;51.506;7.672;2023-04-24T00:31:56;11.27;;;10.90;;
6121;SDS011;3091;51.506;7.672;2023-04-24T00:34:22;11.80;;;11.50;;
6121;SDS011;3091;51.506;7.672;2023-04-24T00:36:48;13.97;;;13.57;;
6121;SDS011;3091;51.506;7.672;2023-04-24T00:39:17;13.20;;;12.80;;
6121;SDS011;3091;51.506;7.672;2023-04-24T00:41:43;13.40;;;13.00;;
6121;SDS011;3091;51.506;7.672;2023-04-24T00:44:10;13.40;;;13.00;;
6121;SDS011;3091;51.506;7.672;2023-04-24T00:46:36;14.20;;;13.70;;
6121;SDS011;3091;51.506;7.672;2023-04-24T00:49:02;13.23;;;12.83;;
6121;SDS011;3091;51.506;7.672;2023-04-24T00:51:29;13.33;;;12.93;;
6121;SDS011;3091;51.506;7.672;2023-04-24T00:53:58;14.03;;;13.53;;
6121;SDS011;3091;51.506;7.672;2023-04-24T00:56:24;13.70;;;13.30;;
6121;SDS011;3091;51.506;7.672;2023-04-24T00:58:51;13.60;;;13.20;;
6121;SDS011;3091;51.506;7.672;2023-04-24T01:01:17;11.70;;;11.40;;
6121;SDS011;3091;51.506;7.672;2023-04-24T01:03:45;11.93;;;11.63;;
6121;SDS011;3091;51.506;7.672;2023-04-24T01:06:12;12.40;;;12.00;;
6121;SDS011;3091;51.506;7.672;2023-04-24T01:08:38;12.63;;;12.20;;
6121;SDS011;3091;51.506;7.672;2023-04-24T01:11:05;12.00;;;11.70;;
6121;SDS011;3091;51.506;7.672;2023-04-24T01:13:32;12.30;;;11.90;;
6121;SDS011;3091;51.506;7.672;2023-04-24T01:15:58;12.60;;;12.20;;
6121;SDS011;3091;51.506;7.672;2023-04-24T01:18:25;13.60;;;13.20;;
6121;SDS011;3091;51.506;7.672;2023-04-24T01:20:52;13.90;;;13.40;;
6121;SDS011;3091;51.506;7.672;2023-04-24T01:23:19;13.17;;;12.77;;
6121;SDS011;3091;51.506;7.672;2023-04-24T01:25:45;12.90;;;12.50;;
6121;SDS011;3091;51.506;7.672;2023-04-24T01:28:12;12.23;;;11.83;;
6121;SDS011;3091;51.506;7.672;2023-04-24T01:30:39;12.60;;;12.20;;
6121;SDS011;3091;51.506;7.672;2023-04-24T01:33:05;12.77;;;12.37;;
6121;SDS011;3091;51.506;7.672;2023-04-24T01:35:31;13.10;;;12.70;;
6121;SDS011;3091;51.506;7.672;2023-04-24T01:37:57;13.67;;;13.07;;
6121;SDS011;3091;51.506;7.672;2023-04-24T01:40:23;12.57;;;12.17;;
6121;SDS011;3091;51.506;7.672;2023-04-24T01:42:49;12.30;;;11.90;;
6121;SDS011;3091;51.506;7.672;2023-04-24T01:45:16;12.83;;;12.43;;
6121;SDS011;3091;51.506;7.672;2023-04-24T01:47:42;13.10;;;12.70;;
6121;SDS011;3091;51.506;7.672;2023-04-24T01:50:11;12.90;;;12.50;;
6121;SDS011;3091;51.506;7.672;2023-04-24T01:52:37;12.30;;;11.90;;
6121;SDS011;3091;51.506;7.672;2023-04-24T01:55:03;12.37;;;11.97;;
6121;SDS011;3091;51.506;7.672;2023-04-24T01:57:33;12.10;;;11.70;;
6121;SDS011;3091;51.506;7.672;2023-04-24T01:59:59;12.40;;;11.90;;
6121;SDS011;3091;51.506;7.672;2023-04-24T02:02:25;12.50;;;12.00;;
6121;SDS011;3091;51.506;7.672;2023-04-24T02:04:54;11.80;;;11.40;;
6121;SDS011;3091;51.506;7.672;2023-04-24T02:07:20;11.73;;;11.33;;
6121;SDS011;3091;51.506;7.672;2023-04-24T02:09:46;12.40;;;11.90;;
6121;SDS011;3091;51.506;7.672;2023-04-24T02:12:13;12.07;;;11.70;;
6121;SDS011;3091;51.506;7.672;2023-04-24T02:14:39;12.10;;;11.70;;
6121;SDS011;3091;51.506;7.672;2023-04-24T02:17:05;12.13;;;11.73;;
6121;SDS011;3091;51.506;7.672;2023-04-24T02:19:31;12.53;;;12.13;;
6121;SDS011;3091;51.506;7.672;2023-04-24T02:21:57;12.30;;;11.90;;
6121;SDS011;3091;51.506;7.672;2023-04-24T02:24:23;12.57;;;12.17;;
6121;SDS011;3091;51.506;7.672;2023-04-24T02:26:49;12.67;;;12.27;;
6121;SDS011;3091;51.506;7.672;2023-04-24T02:29:15;12.83;;;12.43;;
6121;SDS011;3091;51.506;7.672;2023-04-24T02:31:41;13.03;;;12.53;;
6121;SDS011;3091;51.506;7.672;2023-04-24T02:34:07;12.87;;;12.47;;
6121;SDS011;3091;51.506;7.672;2023-04-24T02:36:33;12.27;;;11.87;;
6121;SDS011;3091;51.506;7.672;2023-04-24T02:38:59;12.30;;;11.90;;
6121;SDS011;3091;51.506;7.672;2023-04-24T02:41:26;12.70;;;12.10;;
6121;SDS011;3091;51.506;7.672;2023-04-24T02:43:57;11.50;;;11.13;;
6121;SDS011;3091;51.506;7.672;2023-04-24T02:46:23;12.60;;;12.20;;
6121;SDS011;3091;51.506;7.672;2023-04-24T02:48:49;13.27;;;12.40;;
6121;SDS011;3091;51.506;7.672;2023-04-24T02:51:15;12.50;;;12.10;;
6121;SDS011;3091;51.506;7.672;2023-04-24T02:53:41;12.40;;;11.90;;
6121;SDS011;3091;51.506;7.672;2023-04-24T02:56:07;12.23;;;11.83;;
6121;SDS011;3091;51.506;7.672;2023-04-24T02:58:33;12.50;;;12.10;;
6121;SDS011;3091;51.506;7.672;2023-04-24T03:01:00;13.80;;;13.30;;
6121;SDS011;3091;51.506;7.672;2023-04-24T03:03:26;12.93;;;12.53;;
6121;SDS011;3091;51.506;7.672;2023-04-24T03:05:52;11.30;;;11.00;;
6121;SDS011;3091;51.506;7.672;2023-04-24T03:08:18;11.80;;;11.40;;
6121;SDS011;3091;51.506;7.672;2023-04-24T03:10:44;12.23;;;11.83;;
6121;SDS011;3091;51.506;7.672;2023-04-24T03:13:10;14.90;;;14.20;;
6121;SDS011;3091;51.506;7.672;2023-04-24T03:15:36;15.03;;;14.33;;
6121;SDS011;3091;51.506;7.672;2023-04-24T03:18:02;15.33;;;14.53;;
6121;SDS011;3091;51.506;7.672;2023-04-24T03:20:28;13.83;;;13.33;;
6121;SDS011;3091;51.506;7.672;2023-04-24T03:22:55;13.40;;;12.77;;
6121;SDS011;3091;51.506;7.672;2023-04-24T03:25:22;13.27;;;12.50;;
6121;SDS011;3091;51.506;7.672;2023-04-24T03:27:48;14.53;;;13.83;;
6121;SDS011;3091;51.506;7.672;2023-04-24T03:30:14;17.00;;;16.17;;
6121;SDS011;3091;51.506;7.672;2023-04-24T03:32:40;17.27;;;16.33;;
6121;SDS011;3091;51.506;7.672;2023-04-24T03:35:06;16.73;;;15.80;;
6121;SDS011;3091;51.506;7.672;2023-04-24T03:37:35;17.10;;;16.27;;
6121;SDS011;3091;51.506;7.672;2023-04-24T03:40:01;16.97;;;16.10;;
6121;SDS011;3091;51.506;7.672;2023-04-24T03:42:28;14.73;;;14.23;;
6121;SDS011;3091;51.506;7.672;2023-04-24T03:44:54;13.60;;;13.17;;
6121;SDS011;3091;51.506;7.672;2023-04-24T03:47:19;14.90;;;14.10;;
6121;SDS011;3091;51.506;7.672;2023-04-24T03:49:48;14.93;;;14.23;;
6121;SDS011;3091;51.506;7.672;2023-04-24T03:52:15;14.20;;;13.60;;
6121;SDS011;3091;51.506;7.672;2023-04-24T03:54:41;15.60;;;14.70;;
6121;SDS011;3091;51.506;7.672;2023-04-24T03:57:07;14.43;;;13.83;;
6121;SDS011;3091;51.506;7.672;2023-04-24T03:59:33;18.30;;;17.30;;
6121;SDS011;3091;51.506;7.672;2023-04-24T04:01:58;15.10;;;14.50;;
6121;SDS011;3091;51.506;7.672;2023-04-24T04:04:25;15.70;;;15.10;;
6121;SDS011;3091;51.506;7.672;2023-04-24T04:06:51;17.10;;;16.20;;
6121;SDS011;3091;51.506;7.672;2023-04-24T04:09:17;17.20;;;16.40;;
6121;SDS011;3091;51.506;7.672;2023-04-24T04:11:43;18.70;;;17.63;;
6121;SDS011;3091;51.506;7.672;2023-04-24T04:14:09;16.23;;;15.53;;
6121;SDS011;3091;51.506;7.672;2023-04-24T04:16:35;17.70;;;16.90;;
6121;SDS011;3091;51.506;7.672;2023-04-24T04:19:01;15.80;;;15.20;;
6121;SDS011;3091;51.506;7.672;2023-04-24T04:21:28;18.47;;;17.47;;
6121;SDS011;3091;51.506;7.672;2023-04-24T04:23:54;17.10;;;16.30;;
6121;SDS011;3091;51.506;7.672;2023-04-24T04:26:21;18.90;;;17.83;;
6121;SDS011;3091;51.506;7.672;2023-04-24T04:28:51;15.40;;;14.80;;
6121;SDS011;3091;51.506;7.672;2023-04-24T04:31:17;17.80;;;17.00;;
6121;SDS011;3091;51.506;7.672;2023-04-24T04:33:45;19.37;;;18.30;;
6121;SDS011;3091;51.506;7.672;2023-04-24T04:36:11;16.23;;;15.40;;
6121;SDS011;3091;51.506;7.672;2023-04-24T04:38:37;17.13;;;16.43;;
6121;SDS011;3091;51.506;7.672;2023-04-24T04:41:05;19.20;;;18.30;;
6121;SDS011;3091;51.506;7.672;2023-04-24T04:43:34;17.00;;;16.30;;
6121;SDS011;3091;51.506;7.672;2023-04-24T04:46:01;17.80;;;17.00;;
6121;SDS011;3091;51.506;7.672;2023-04-24T04:48:28;15.30;;;14.70;;
6121;SDS011;3091;51.506;7.672;2023-04-24T04:50:56;15.77;;;15.17;;
6121;SDS011;3091;51.506;7.672;2023-04-24T04:53:22;16.70;;;15.77;;
6121;SDS011;3091;51.506;7.672;2023-04-24T04:55:48;16.00;;;15.33;;
6121;SDS011;3091;51.506;7.672;2023-04-24T04:58:14;17.37;;;16.30;;
6121;SDS011;3091;51.506;7.672;2023-04-24T05:00:40;18.20;;;17.10;;
6121;SDS011;3091;51.506;7.672;2023-04-24T05:03:06;16.17;;;15.37;;
6121;SDS011;3091;51.506;7.672;2023-04-24T05:05:32;17.00;;;16.30;;
6121;SDS011;3091;51.506;7.672;2023-04-24T05:07:58;17.63;;;16.83;;
6121;SDS011;3091;51.506;7.672;2023-04-24T05:10:24;15.57;;;14.97;;
6121;SDS011;3091;51.506;7.672;2023-04-24T05:12:50;18.10;;;17.20;;
6121;SDS011;3091;51.506;7.672;2023-04-24T05:15:19;16.93;;;16.23;;
6121;SDS011;3091;51.506;7.672;2023-04-24T05:17:45;17.27;;;16.37;;
6121;SDS011;3091;51.506;7.672;2023-04-24T05:20:11;14.60;;;14.10;;
6121;SDS011;3091;51.506;7.672;2023-04-24T05:22:37;16.60;;;15.70;;
6121;SDS011;3091;51.506;7.672;2023-04-24T05:25:03;14.97;;;14.47;;
6121;SDS011;3091;51.506;7.672;2023-04-24T05:27:29;16.70;;;16.00;;
6121;SDS011;3091;51.506;7.672;2023-04-24T05:29:55;15.37;;;14.80;;
6121;SDS011;3091;51.506;7.672;2023-04-24T05:32:21;17.57;;;16.67;;
6121;SDS011;3091;51.506;7.672;2023-04-24T05:34:47;16.53;;;15.73;;
6121;SDS011;3091;51.506;7.672;2023-04-24T05:37:13;15.63;;;14.93;;
6121;SDS011;3091;51.506;7.672;2023-04-24T05:39:39;16.67;;;15.77;;
6121;SDS011;3091;51.506;7.672;2023-04-24T05:42:06;16.60;;;15.83;;
6121;SDS011;3091;51.506;7.672;2023-04-24T05:44:32;14.97;;;14.37;;
6121;SDS011;3091;51.506;7.672;2023-04-24T05:46:58;12.40;;;12.00;;
6121;SDS011;3091;51.506;7.672;2023-04-24T05:49:25;15.77;;;15.07;;
6121;SDS011;3091;51.506;7.672;2023-04-24T05:51:51;13.50;;;12.90;;
6121;SDS011;3091;51.506;7.672;2023-04-24T05:54:17;14.37;;;13.67;;
6121;SDS011;3091;51.506;7.672;2023-04-24T05:56:43;18.10;;;17.20;;
6121;SDS011;3091;51.506;7.672;2023-04-24T05:59:09;15.80;;;15.17;;
6121;SDS011;3091;51.506;7.672;2023-04-24T06:01:35;15.60;;;15.00;;
6121;SDS011;3091;51.506;7.672;2023-04-24T06:04:02;16.67;;;16.00;;
6121;SDS011;3091;51.506;7.672;2023-04-24T06:06:28;16.13;;;15.50;;
6121;SDS011;3091;51.506;7.672;2023-04-24T06:08:55;16.73;;;16.00;;
6121;SDS011;3091;51.506;7.672;2023-04-24T06:11:22;15.30;;;14.60;;
6121;SDS011;3091;51.506;7.672;2023-04-24T06:13:47;15.50;;;14.90;;
6121;SDS011;3091;51.506;7.672;2023-04-24T06:16:14;16.43;;;15.70;;
6121;SDS011;3091;51.506;7.672;2023-04-24T06:18:40;19.40;;;18.50;;
6121;SDS011;3091;51.506;7.672;2023-04-24T06:21:06;17.90;;;17.20;;
6121;SDS011;3091;51.506;7.672;2023-04-24T06:23:32;16.93;;;16.30;;
6121;SDS011;3091;51.506;7.672;2023-04-24T06:25:58;16.80;;;16.20;;
6121;SDS011;3091;51.506;7.672;2023-04-24T06:28:26;18.80;;;17.70;;
6121;SDS011;3091;51.506;7.672;2023-04-24T06:30:52;16.67;;;15.87;;
6121;SDS011;3091;51.506;7.672;2023-04-24T06:33:18;16.70;;;16.00;;
6121;SDS011;3091;51.506;7.672;2023-04-24T06:35:47;17.87;;;17.07;;
6121;SDS011;3091;51.506;7.672;2023-04-24T06:38:13;17.10;;;16.33;;
6121;SDS011;3091;51.506;7.672;2023-04-24T06:40:39;14.90;;;14.30;;
6121;SDS011;3091;51.506;7.672;2023-04-24T06:43:05;15.23;;;14.53;;
6121;SDS011;3091;51.506;7.672;2023-04-24T06:45:31;15.67;;;14.97;;
6121;SDS011;3091;51.506;7.672;2023-04-24T06:47:57;17.93;;;16.40;;
6121;SDS011;3091;51.506;7.672;2023-04-24T06:50:23;16.13;;;15.43;;
6121;SDS011;3091;51.506;7.672;2023-04-24T06:52:50;18.33;;;17.20;;
6121;SDS011;3091;51.506;7.672;2023-04-24T06:55:16;15.90;;;15.30;;
6121;SDS011;3091;51.506;7.672;2023-04-24T06:57:42;15.20;;;14.60;;
6121;SDS011;3091;51.506;7.672;2023-04-24T07:00:09;18.10;;;17.20;;
6121;SDS011;3091;51.506;7.672;2023-04-24T07:02:35;14.70;;;14.17;;
6121;SDS011;3091;51.506;7.672;2023-04-24T07:05:02;14.90;;;14.30;;
6121;SDS011;3091;51.506;7.672;2023-04-24T07:07:28;15.60;;;14.90;;
6121;SDS011;3091;51.506;7.672;2023-04-24T07:09:54;15.10;;;14.50;;
6121;SDS011;3091;51.506;7.672;2023-04-24T07:12:21;15.10;;;14.40;;
6121;SDS011;3091;51.506;7.672;2023-04-24T07:14:47;14.90;;;14.30;;
6121;SDS011;3091;51.506;7.672;2023-04-24T07:17:13;19.20;;;18.40;;
6121;SDS011;3091;51.506;7.672;2023-04-24T07:19:42;21.07;;;20.07;;
6121;SDS011;3091;51.506;7.672;2023-04-24T07:22:08;18.03;;;17.33;;
6121;SDS011;3091;51.506;7.672;2023-04-24T07:24:36;18.67;;;17.87;;
6121;SDS011;3091;51.506;7.672;2023-04-24T07:27:02;20.50;;;19.50;;
6121;SDS011;3091;51.506;7.672;2023-04-24T07:29:28;19.47;;;18.67;;
6121;SDS011;3091;51.506;7.672;2023-04-24T07:31:54;21.80;;;20.77;;
6121;SDS011;3091;51.506;7.672;2023-04-24T07:34:21;19.97;;;19.00;;
6121;SDS011;3091;51.506;7.672;2023-04-24T07:36:49;17.87;;;17.07;;
6121;SDS011;3091;51.506;7.672;2023-04-24T07:39:16;17.20;;;16.20;;
6121;SDS011;3091;51.506;7.672;2023-04-24T07:41:42;17.40;;;16.70;;
6121;SDS011;3091;51.506;7.672;2023-04-24T07:44:08;18.33;;;17.40;;
6121;SDS011;3091;51.506;7.672;2023-04-24T07:46:34;16.00;;;15.40;;
6121;SDS011;3091;51.506;7.672;2023-04-24T07:49:00;15.70;;;15.10;;
6121;SDS011;3091;51.506;7.672;2023-04-24T07:51:28;16.60;;;15.93;;
6121;SDS011;3091;51.506;7.672;2023-04-24T07:53:55;16.80;;;16.10;;
6121;SDS011;3091;51.506;7.672;2023-04-24T07:56:21;17.67;;;16.90;;
6121;SDS011;3091;51.506;7.672;2023-04-24T07:58:50;17.27;;;16.53;;
6121;SDS011;3091;51.506;7.672;2023-04-24T08:01:16;17.47;;;16.67;;
6121;SDS011;3091;51.506;7.672;2023-04-24T08:03:42;16.57;;;15.87;;
6121;SDS011;3091;51.506;7.672;2023-04-24T08:06:08;16.97;;;16.17;;
6121;SDS011;3091;51.506;7.672;2023-04-24T08:08:34;16.00;;;15.30;;
6121;SDS011;3091;51.506;7.672;2023-04-24T08:11:01;15.40;;;14.80;;
6121;SDS011;3091;51.506;7.672;2023-04-24T08:13:27;15.93;;;15.33;;
6121;SDS011;3091;51.506;7.672;2023-04-24T08:15:53;17.20;;;16.50;;
6121;SDS011;3091;51.506;7.672;2023-04-24T08:18:19;19.20;;;18.40;;
6121;SDS011;3091;51.506;7.672;2023-04-24T08:20:45;21.87;;;20.87;;
6121;SDS011;3091;51.506;7.672;2023-04-24T08:23:11;19.60;;;18.80;;
6121;SDS011;3091;51.506;7.672;2023-04-24T08:25:38;22.40;;;21.40;;
6121;SDS011;3091;51.506;7.672;2023-04-24T08:28:05;21.40;;;20.50;;
6121;SDS011;3091;51.506;7.672;2023-04-24T08:30:31;18.30;;;17.60;;
6121;SDS011;3091;51.506;7.672;2023-04-24T08:32:57;15.20;;;14.60;;
6121;SDS011;3091;51.506;7.672;2023-04-24T08:35:23;15.00;;;14.40;;
6121;SDS011;3091;51.506;7.672;2023-04-24T08:37:51;15.90;;;15.20;;
6121;SDS011;3091;51.506;7.672;2023-04-24T08:40:21;14.67;;;14.17;;
6121;SDS011;3091;51.506;7.672;2023-04-24T08:42:48;16.53;;;15.83;;
6121;SDS011;3091;51.506;7.672;2023-04-24T08:45:15;18.87;;;18.07;;
6121;SDS011;3091;51.506;7.672;2023-04-24T08:47:43;21.10;;;20.20;;
6121;SDS011;3091;51.506;7.672;2023-04-24T08:50:12;24.40;;;23.00;;
6121;SDS011;3091;51.506;7.672;2023-04-24T08:52:40;28.80;;;27.50;;
6121;SDS011;3091;51.506;7.672;2023-04-24T08:55:07;37.10;;;35.40;;
6121;SDS011;3091;51.506;7.672;2023-04-24T08:57:34;43.80;;;41.80;;
6121;SDS011;3091;51.506;7.672;2023-04-24T09:00:01;43.47;;;41.47;;
6121;SDS011;3091;51.506;7.672;2023-04-24T09:02:27;45.30;;;43.20;;
6121;SDS011;3091;51.506;7.672;2023-04-24T09:04:55;61.20;;;58.40;;
6121;SDS011;3091;51.506;7.672;2023-04-24T09:07:22;77.67;;;74.27;;
6121;SDS011;3091;51.506;7.672;2023-04-24T09:09:50;84.33;;;80.73;;
6121;SDS011;3091;51.506;7.672;2023-04-24T09:12:16;82.40;;;78.73;;
6121;SDS011;3091;51.506;7.672;2023-04-24T09:14:42;83.60;;;79.90;;
6121;SDS011;3091;51.506;7.672;2023-04-24T09:17:10;66.87;;;63.87;;
6121;SDS011;3091;51.506;7.672;2023-04-24T09:19:36;73.87;;;70.57;;
6121;SDS011;3091;51.506;7.672;2023-04-24T09:22:05;88.77;;;84.83;;
6121;SDS011;3091;51.506;7.672;2023-04-24T09:24:32;112.93;;;108.03;;
6121;SDS011;3091;51.506;7.672;2023-04-24T09:26:58;118.00;;;113.00;;
6121;SDS011;3091;51.506;7.672;2023-04-24T09:29:26;111.17;;;106.30;;
6121;SDS011;3091;51.506;7.672;2023-04-24T09:31:52;119.17;;;114.17;;
6121;SDS011;3091;51.506;7.672;2023-04-24T09:34:22;117.43;;;112.23;;
6121;SDS011;3091;51.506;7.672;2023-04-24T09:36:48;113.97;;;108.87;;
6121;SDS011;3091;51.506;7.672;2023-04-24T09:39:15;109.27;;;103.37;;
6121;SDS011;3091;51.506;7.672;2023-04-24T09:46:37;121.60;;;116.03;;
6121;SDS011;3091;51.506;7.672;2023-04-24T09:49:12;96.73;;;91.73;;
6121;SDS011;3091;51.506;7.672;2023-04-24T09:51:38;96.73;;;91.13;;
6121;SDS011;3091;51.506;7.672;2023-04-24T09:54:11;91.73;;;86.80;;
6121;SDS011;3091;51.506;7.672;2023-04-24T09:56:39;92.13;;;86.93;;
6121;SDS011;3091;51.506;7.672;2023-04-24T09:59:07;90.00;;;85.00;;
6121;SDS011;3091;51.506;7.672;2023-04-24T10:01:34;86.07;;;81.37;;
6121;SDS011;3091;51.506;7.672;2023-04-24T10:04:00;88.53;;;83.67;;
6121;SDS011;3091;51.506;7.672;2023-04-24T10:06:35;77.17;;;72.67;;
6121;SDS011;3091;51.506;7.672;2023-04-24T10:09:02;76.87;;;72.37;;
6121;SDS011;3091;51.506;7.672;2023-04-24T10:11:28;73.10;;;68.80;;
6121;SDS011;3091;51.506;7.672;2023-04-24T10:13:55;66.07;;;61.87;;
6121;SDS011;3091;51.506;7.672;2023-04-24T10:16:22;68.10;;;63.80;;
6121;SDS011;3091;51.506;7.672;2023-04-24T10:18:49;78.20;;;73.60;;
6121;SDS011;3091;51.506;7.672;2023-04-24T10:21:15;74.23;;;69.83;;
6121;SDS011;3091;51.506;7.672;2023-04-24T10:23:42;74.33;;;69.93;;
6121;SDS011;3091;51.506;7.672;2023-04-24T10:26:10;64.13;;;59.93;;
6121;SDS011;3091;51.506;7.672;2023-04-24T10:28:42;69.90;;;65.60;;
6121;SDS011;3091;51.506;7.672;2023-04-24T10:31:09;64.47;;;60.27;;
6121;SDS011;3091;51.506;7.672;2023-04-24T10:33:35;70.43;;;66.07;;
6121;SDS011;3091;51.506;7.672;2023-04-24T10:36:01;66.17;;;61.97;;
6121;SDS011;3091;51.506;7.672;2023-04-24T10:38:28;65.27;;;61.17;;
6121;SDS011;3091;51.506;7.672;2023-04-24T10:41:06;68.67;;;64.47;;
6121;SDS011;3091;51.506;7.672;2023-04-24T10:43:34;65.27;;;61.17;;
6121;SDS011;3091;51.506;7.672;2023-04-24T10:46:01;67.10;;;63.00;;
6121;SDS011;3091;51.506;7.672;2023-04-24T10:48:28;68.20;;;64.10;;
6121;SDS011;3091;51.506;7.672;2023-04-24T10:50:54;69.37;;;65.17;;
6121;SDS011;3091;51.506;7.672;2023-04-24T10:53:20;71.40;;;67.30;;
6121;SDS011;3091;51.506;7.672;2023-04-24T10:55:58;67.97;;;63.87;;
6121;SDS011;3091;51.506;7.672;2023-04-24T10:58:35;63.27;;;59.37;;
6121;SDS011;3091;51.506;7.672;2023-04-24T11:01:01;69.57;;;65.37;;
6121;SDS011;3091;51.506;7.672;2023-04-24T11:06:06;75.37;;;71.20;;
6121;SDS011;3091;51.506;7.672;2023-04-24T11:08:39;64.73;;;60.63;;
6121;SDS011;3091;51.506;7.672;2023-04-24T11:11:15;71.63;;;67.43;;
6121;SDS011;3091;51.506;7.672;2023-04-24T11:18:49;83.33;;;78.73;;
6121;SDS011;3091;51.506;7.672;2023-04-24T11:21:21;86.60;;;81.90;;
6121;SDS011;3091;51.506;7.672;2023-04-24T11:23:47;66.77;;;62.67;;
6121;SDS011;3091;51.506;7.672;2023-04-24T11:26:21;71.37;;;67.17;;
6121;SDS011;3091;51.506;7.672;2023-04-24T11:28:49;69.10;;;64.90;;
6121;SDS011;3091;51.506;7.672;2023-04-24T11:34:10;64.80;;;60.60;;
6121;SDS011;3091;51.506;7.672;2023-04-24T11:36:37;63.07;;;58.87;;
6121;SDS011;3091;51.506;7.672;2023-04-24T11:39:03;62.23;;;58.13;;
6121;SDS011;3091;51.506;7.672;2023-04-24T11:41:29;60.83;;;56.80;;
6121;SDS011;3091;51.506;7.672;2023-04-24T11:43:55;61.77;;;57.67;;
6121;SDS011;3091;51.506;7.672;2023-04-24T11:46:22;64.00;;;59.80;;
6121;SDS011;3091;51.506;7.672;2023-04-24T11:48:48;62.87;;;58.67;;
6121;SDS011;3091;51.506;7.672;2023-04-24T11:51:16;62.50;;;58.40;;
6121;SDS011;3091;51.506;7.672;2023-04-24T11:53:42;68.03;;;63.67;;
6121;SDS011;3091;51.506;7.672;2023-04-24T11:56:09;65.77;;;61.43;;
6121;SDS011;3091;51.506;7.672;2023-04-24T11:58:35;63.37;;;59.07;;
6121;SDS011;3091;51.506;7.672;2023-04-24T12:01:01;72.53;;;67.90;;
6121;SDS011;3091;51.506;7.672;2023-04-24T12:03:27;77.00;;;72.57;;
6121;SDS011;3091;51.506;7.672;2023-04-24T12:06:04;80.50;;;75.70;;
6121;SDS011;3091;51.506;7.672;2023-04-24T12:08:31;82.93;;;78.20;;
6121;SDS011;3091;51.506;7.672;2023-04-24T12:10:57;83.63;;;79.00;;
6121;SDS011;3091;51.506;7.672;2023-04-24T12:13:25;83.77;;;79.10;;
6121;SDS011;3091;51.506;7.672;2023-04-24T12:15:51;83.50;;;79.00;;
6121;SDS011;3091;51.506;7.672;2023-04-24T12:18:19;80.50;;;75.90;;
6121;SDS011;3091;51.506;7.672;2023-04-24T12:20:47;83.43;;;78.97;;
6121;SDS011;3091;51.506;7.672;2023-04-24T12:23:16;78.67;;;74.37;;
6121;SDS011;3091;51.506;7.672;2023-04-24T12:25:42;80.27;;;75.87;;
6121;SDS011;3091;51.506;7.672;2023-04-24T12:28:09;76.63;;;71.87;;
6121;SDS011;3091;51.506;7.672;2023-04-24T12:30:54;77.03;;;72.73;;
6121;SDS011;3091;51.506;7.672;2023-04-24T12:33:20;67.93;;;62.80;;
6121;SDS011;3091;51.506;7.672;2023-04-24T12:35:47;76.70;;;72.40;;
6121;SDS011;3091;51.506;7.672;2023-04-24T12:38:15;75.67;;;71.37;;
6121;SDS011;3091;51.506;7.672;2023-04-24T12:40:42;74.47;;;69.87;;
6121;SDS011;3091;51.506;7.672;2023-04-24T12:43:15;73.07;;;69.07;;
6121;SDS011;3091;51.506;7.672;2023-04-24T12:45:42;66.70;;;63.00;;
6121;SDS011;3091;51.506;7.672;2023-04-24T12:48:09;63.17;;;59.47;;
6121;SDS011;3091;51.506;7.672;2023-04-24T12:50:35;56.17;;;52.77;;
6121;SDS011;3091;51.506;7.672;2023-04-24T12:53:01;51.43;;;48.70;;
6121;SDS011;3091;51.506;7.672;2023-04-24T12:55:27;36.33;;;34.30;;
6121;SDS011;3091;51.506;7.672;2023-04-24T12:57:53;25.03;;;23.80;;
6121;SDS011;3091;51.506;7.672;2023-04-24T13:00:21;18.50;;;17.70;;
6121;SDS011;3091;51.506;7.672;2023-04-24T13:02:47;17.07;;;16.33;;
6121;SDS011;3091;51.506;7.672;2023-04-24T13:05:13;18.03;;;17.20;;
6121;SDS011;3091;51.506;7.672;2023-04-24T13:07:39;18.43;;;17.63;;
6121;SDS011;3091;51.506;7.672;2023-04-24T13:10:05;18.50;;;16.93;;
6121;SDS011;3091;51.506;7.672;2023-04-24T13:12:32;17.30;;;16.60;;
6121;SDS011;3091;51.506;7.672;2023-04-24T13:14:58;18.73;;;17.73;;
6121;SDS011;3091;51.506;7.672;2023-04-24T13:17:24;19.23;;;18.27;;
6121;SDS011;3091;51.506;7.672;2023-04-24T13:19:50;20.17;;;19.17;;
6121;SDS011;3091;51.506;7.672;2023-04-24T13:22:17;20.10;;;18.90;;
6121;SDS011;3091;51.506;7.672;2023-04-24T13:24:46;20.83;;;19.70;;
6121;SDS011;3091;51.506;7.672;2023-04-24T13:27:13;21.07;;;19.70;;
6121;SDS011;3091;51.506;7.672;2023-04-24T13:29:40;22.80;;;21.70;;
6121;SDS011;3091;51.506;7.672;2023-04-24T13:32:06;21.10;;;20.20;;
6121;SDS011;3091;51.506;7.672;2023-04-24T13:34:32;19.80;;;18.80;;
6121;SDS011;3091;51.506;7.672;2023-04-24T13:36:59;18.23;;;17.50;;
6121;SDS011;3091;51.506;7.672;2023-04-24T13:39:25;17.83;;;17.00;;
6121;SDS011;3091;51.506;7.672;2023-04-24T13:41:52;14.90;;;14.30;;
6121;SDS011;3091;51.506;7.672;2023-04-24T13:44:18;16.63;;;15.93;;
6121;SDS011;3091;51.506;7.672;2023-04-24T13:46:46;15.20;;;14.50;;
6121;SDS011;3091;51.506;7.672;2023-04-24T13:49:13;14.97;;;14.27;;
6121;SDS011;3091;51.506;7.672;2023-04-24T13:51:39;14.60;;;14.10;;
6121;SDS011;3091;51.506;7.672;2023-04-24T13:54:05;14.40;;;13.90;;
6121;SDS011;3091;51.506;7.672;2023-04-24T13:56:31;14.63;;;14.10;;
6121;SDS011;3091;51.506;7.672;2023-04-24T13:58:57;13.53;;;13.03;;
6121;SDS011;3091;51.506;7.672;2023-04-24T14:01:23;12.87;;;12.47;;
6121;SDS011;3091;51.506;7.672;2023-04-24T14:03:52;14.03;;;13.53;;
6121;SDS011;3091;51.506;7.672;2023-04-24T14:06:19;13.73;;;13.23;;
6121;SDS011;3091;51.506;7.672;2023-04-24T14:08:46;13.43;;;12.83;;
6121;SDS011;3091;51.506;7.672;2023-04-24T14:11:12;14.23;;;13.53;;
6121;SDS011;3091;51.506;7.672;2023-04-24T14:13:38;14.10;;;13.30;;
6121;SDS011;3091;51.506;7.672;2023-04-24T14:16:04;13.07;;;12.57;;
6121;SDS011;3091;51.506;7.672;2023-04-24T14:18:30;13.67;;;13.17;;
6121;SDS011;3091;51.506;7.672;2023-04-24T14:20:56;13.67;;;13.17;;
6121;SDS011;3091;51.506;7.672;2023-04-24T14:23:22;13.40;;;12.90;;
6121;SDS011;3091;51.506;7.672;2023-04-24T14:25:48;13.90;;;13.40;;
6121;SDS011;3091;51.506;7.672;2023-04-24T14:28:17;13.67;;;13.17;;
6121;SDS011;3091;51.506;7.672;2023-04-24T14:30:44;12.60;;;12.20;;
6121;SDS011;3091;51.506;7.672;2023-04-24T14:33:10;13.30;;;12.80;;
6121;SDS011;3091;51.506;7.672;2023-04-24T14:35:37;12.30;;;11.90;;
6121;SDS011;3091;51.506;7.672;2023-04-24T14:38:03;12.20;;;11.80;;
6121;SDS011;3091;51.506;7.672;2023-04-24T14:40:29;17.73;;;16.40;;
6121;SDS011;3091;51.506;7.672;2023-04-24T14:42:56;14.27;;;13.37;;
6121;SDS011;3091;51.506;7.672;2023-04-24T14:45:22;11.80;;;11.40;;
6121;SDS011;3091;51.506;7.672;2023-04-24T14:47:48;11.80;;;11.40;;
6121;SDS011;3091;51.506;7.672;2023-04-24T14:50:15;12.10;;;11.60;;
6121;SDS011;3091;51.506;7.672;2023-04-24T14:52:41;13.23;;;12.73;;
6121;SDS011;3091;51.506;7.672;2023-04-24T14:55:07;12.50;;;12.00;;
6121;SDS011;3091;51.506;7.672;2023-04-24T14:57:35;13.47;;;12.77;;
6121;SDS011;3091;51.506;7.672;2023-04-24T15:00:02;12.57;;;12.10;;